createdAt,value
2017-12-31T00:02:17.759Z,1.67
2017-12-31T00:04:44.094Z,1.55
2017-12-31T00:07:10.707Z,0.80
2017-12-31T00:09:36.936Z,0.80
2017-12-31T00:12:03.222Z,0.80
2017-12-31T00:14:29.466Z,0.75
2017-12-31T00:16:56.955Z,0.55
2017-12-31T00:19:23.857Z,1.05
2017-12-31T00:21:50.177Z,0.60
2017-12-31T00:24:16.559Z,0.90
2017-12-31T00:26:42.808Z,0.80
2017-12-31T00:29:09.940Z,0.98
2017-12-31T00:31:36.211Z,0.82
2017-12-31T00:34:02.495Z,1.00
2017-12-31T00:36:29.113Z,1.10
2017-12-31T00:38:55.393Z,19.48
2017-12-31T00:41:21.636Z,1.65
2017-12-31T00:43:47.863Z,16.10
2017-12-31T00:46:14.403Z,1.70
2017-12-31T00:48:41.584Z,1.60
2017-12-31T00:51:07.792Z,8.48
2017-12-31T00:53:34.660Z,1.83
2017-12-31T00:56:00.902Z,2.20
2017-12-31T00:58:27.142Z,2.28
2017-12-31T01:00:53.759Z,2.40
2017-12-31T01:03:20.079Z,3.30
2017-12-31T01:05:46.307Z,3.37
2017-12-31T01:08:13.562Z,3.58
2017-12-31T01:10:39.992Z,6.32
2017-12-31T01:13:06.280Z,8.95
2017-12-31T01:15:32.495Z,15.57
2017-12-31T01:17:58.970Z,16.98
2017-12-31T01:20:25.203Z,12.85
2017-12-31T01:22:51.473Z,9.75
2017-12-31T01:25:17.720Z,11.57
2017-12-31T01:27:44.806Z,11.15
2017-12-31T01:30:11.056Z,14.35
2017-12-31T01:32:37.286Z,10.85
2017-12-31T01:35:03.561Z,11.93
2017-12-31T01:37:29.812Z,12.57
2017-12-31T01:39:56.078Z,11.70
2017-12-31T01:42:22.361Z,7.70
2017-12-31T01:44:48.618Z,8.73
2017-12-31T01:47:14.816Z,10.75
2017-12-31T01:49:41.089Z,8.52
2017-12-31T01:52:07.347Z,9.85
2017-12-31T01:54:33.594Z,10.25
2017-12-31T01:56:59.835Z,9.18
2017-12-31T01:59:26.098Z,10.88
2017-12-31T02:01:52.331Z,9.00
2017-12-31T02:04:18.547Z,10.40
2017-12-31T02:06:44.800Z,41.78
2017-12-31T02:09:11.391Z,100.43
2017-12-31T02:11:37.667Z,180.12
2017-12-31T02:14:03.916Z,169.55
2017-12-31T02:16:30.121Z,99.60
2017-12-31T02:18:56.721Z,110.65
2017-12-31T02:21:22.976Z,120.07
2017-12-31T02:23:49.227Z,203.98
2017-12-31T02:26:15.478Z,143.68
2017-12-31T02:28:41.746Z,129.98
2017-12-31T02:31:08.357Z,180.85
2017-12-31T02:33:34.574Z,148.27
2017-12-31T02:36:00.799Z,117.28
2017-12-31T02:38:27.053Z,119.35
2017-12-31T02:40:53.273Z,92.78
2017-12-31T02:43:19.508Z,54.60
2017-12-31T02:45:45.739Z,77.05
2017-12-31T02:48:11.965Z,42.83
2017-12-31T02:50:38.193Z,43.72
2017-12-31T02:53:04.482Z,28.25
2017-12-31T02:55:30.721Z,13.15
2017-12-31T02:57:56.924Z,11.85
2017-12-31T03:00:24.445Z,10.00
2017-12-31T03:02:50.661Z,40.85
2017-12-31T03:05:16.901Z,11.98
2017-12-31T03:07:43.117Z,27.98
2017-12-31T03:10:09.343Z,13.38
2017-12-31T03:12:35.580Z,18.77
2017-12-31T03:15:01.789Z,62.08
2017-12-31T03:17:28.022Z,68.87
2017-12-31T03:19:54.905Z,113.90
2017-12-31T03:22:21.136Z,54.67
2017-12-31T03:24:47.378Z,49.92
2017-12-31T03:27:13.632Z,69.95
2017-12-31T03:29:39.869Z,20.05
2017-12-31T03:32:06.140Z,25.08
2017-12-31T03:34:32.412Z,75.47
2017-12-31T03:36:58.636Z,73.47
2017-12-31T03:39:24.864Z,172.23
2017-12-31T03:41:51.102Z,216.52
2017-12-31T03:44:17.337Z,126.03
2017-12-31T03:46:43.586Z,154.50
2017-12-31T03:49:09.800Z,157.50
2017-12-31T03:51:36.026Z,206.73
2017-12-31T03:54:02.249Z,201.15
2017-12-31T03:56:28.499Z,166.27
2017-12-31T03:58:54.698Z,132.90
2017-12-31T04:01:20.908Z,120.32
2017-12-31T04:03:47.140Z,113.93
2017-12-31T04:06:13.381Z,91.78
2017-12-31T04:08:39.587Z,141.40
2017-12-31T04:11:06.183Z,80.07
2017-12-31T04:13:32.431Z,102.05
2017-12-31T04:15:58.654Z,182.88
2017-12-31T04:18:24.893Z,88.18
2017-12-31T04:20:51.470Z,132.95
2017-12-31T04:23:17.719Z,108.22
2017-12-31T04:25:43.935Z,88.50
2017-12-31T04:28:10.153Z,91.65
2017-12-31T04:30:36.404Z,27.35
2017-12-31T04:33:02.658Z,40.95
2017-12-31T04:35:28.886Z,27.83
2017-12-31T04:37:55.094Z,42.80
2017-12-31T04:40:22.293Z,55.83
2017-12-31T04:42:48.546Z,29.25
2017-12-31T04:45:15.350Z,128.20
2017-12-31T04:47:41.958Z,160.45
2017-12-31T04:50:08.194Z,118.57
2017-12-31T04:52:34.460Z,138.93
2017-12-31T04:55:00.658Z,104.15
2017-12-31T04:57:26.932Z,46.92
2017-12-31T04:59:53.972Z,22.13
2017-12-31T05:02:20.167Z,66.93
2017-12-31T05:04:46.782Z,68.53
2017-12-31T05:07:12.989Z,76.30
2017-12-31T05:09:39.253Z,14.50
2017-12-31T05:12:05.531Z,16.48
2017-12-31T05:14:31.769Z,338.60
2017-12-31T05:16:58.672Z,69.40
2017-12-31T05:19:24.919Z,147.52
2017-12-31T05:21:51.189Z,38.22
2017-12-31T05:24:17.406Z,42.62
2017-12-31T05:26:43.616Z,29.83
2017-12-31T05:29:09.866Z,34.85
2017-12-31T05:31:36.146Z,29.10
2017-12-31T05:34:02.762Z,366.42
2017-12-31T05:36:29.394Z,172.70
2017-12-31T05:38:55.610Z,208.90
2017-12-31T05:41:21.803Z,19.23
2017-12-31T05:43:48.021Z,3.45
2017-12-31T05:46:14.268Z,2.20
2017-12-31T05:48:40.513Z,1.80
2017-12-31T05:51:06.719Z,1.73
2017-12-31T05:53:32.974Z,1.90
2017-12-31T05:55:59.182Z,1.77
2017-12-31T05:58:25.395Z,1.80
2017-12-31T06:00:51.641Z,1.80
2017-12-31T06:03:17.854Z,1.80
2017-12-31T06:05:44.082Z,1.80
2017-12-31T06:08:10.342Z,1.50
2017-12-31T06:10:39.598Z,1.60
2017-12-31T06:15:37.093Z,1.92
2017-12-31T06:18:05.764Z,1.87
2017-12-31T06:20:31.984Z,1.58
2017-12-31T06:22:58.268Z,1.45
2017-12-31T06:25:24.484Z,1.80
2017-12-31T06:27:50.760Z,1.65
2017-12-31T06:30:16.986Z,1.85
2017-12-31T06:32:43.600Z,1.73
2017-12-31T06:35:09.829Z,2.75
2017-12-31T06:37:36.097Z,1.33
2017-12-31T06:40:02.383Z,1.55
2017-12-31T06:42:28.627Z,1.80
2017-12-31T06:44:55.261Z,2.00
2017-12-31T06:47:21.877Z,1.55
2017-12-31T06:49:48.094Z,1.70
2017-12-31T06:52:14.348Z,1.73
2017-12-31T06:54:40.613Z,1.92
2017-12-31T06:57:06.853Z,1.70
2017-12-31T06:59:33.354Z,1.58
2017-12-31T07:01:59.588Z,1.90
2017-12-31T07:04:25.805Z,2.12
2017-12-31T07:06:52.071Z,1.70
2017-12-31T07:09:18.265Z,2.10
2017-12-31T07:11:44.535Z,1.87
2017-12-31T07:14:10.781Z,2.87
2017-12-31T07:16:37.064Z,1.50
2017-12-31T07:19:03.271Z,1.60
2017-12-31T07:21:29.879Z,1.40
2017-12-31T07:23:56.139Z,1.48
2017-12-31T07:26:22.705Z,2.00
2017-12-31T07:28:49.004Z,1.30
2017-12-31T07:31:15.654Z,1.52
2017-12-31T07:33:42.316Z,1.60
2017-12-31T07:36:08.550Z,1.60
2017-12-31T07:38:34.794Z,1.70
2017-12-31T07:41:01.027Z,1.77
2017-12-31T07:43:27.263Z,1.50
2017-12-31T07:45:53.531Z,1.50
2017-12-31T07:48:19.752Z,1.50
2017-12-31T07:50:46.010Z,1.92
2017-12-31T07:53:12.236Z,1.75
2017-12-31T07:55:38.495Z,1.50
2017-12-31T07:58:04.769Z,1.70
2017-12-31T08:00:31.368Z,1.10
2017-12-31T08:02:57.663Z,2.28
2017-12-31T08:05:23.891Z,1.70
2017-12-31T08:07:50.119Z,2.10
2017-12-31T08:10:16.398Z,1.25
2017-12-31T08:12:42.686Z,1.70
2017-12-31T08:15:08.972Z,1.55
2017-12-31T08:17:35.588Z,1.25
2017-12-31T08:20:02.233Z,1.60
2017-12-31T08:22:28.466Z,1.30
2017-12-31T08:24:54.681Z,1.25
2017-12-31T08:27:20.953Z,1.52
2017-12-31T08:29:47.243Z,1.90
2017-12-31T08:32:13.518Z,1.17
2017-12-31T08:34:39.802Z,1.50
2017-12-31T08:37:06.057Z,2.00
2017-12-31T08:39:32.696Z,1.20
2017-12-31T08:41:59.316Z,1.70
2017-12-31T08:44:25.565Z,1.80
2017-12-31T08:46:52.323Z,1.40
2017-12-31T08:49:18.608Z,1.62
2017-12-31T08:51:44.871Z,1.30
2017-12-31T08:54:11.129Z,1.30
2017-12-31T08:56:37.391Z,1.70
2017-12-31T08:59:03.657Z,1.80
2017-12-31T09:01:29.963Z,2.50
2017-12-31T09:03:56.626Z,3.17
2017-12-31T09:06:22.942Z,2.92
2017-12-31T09:08:49.571Z,3.03
2017-12-31T09:11:15.823Z,2.30
2017-12-31T09:13:42.103Z,1.62
2017-12-31T09:16:08.420Z,2.20
2017-12-31T09:18:34.641Z,1.80
2017-12-31T09:21:00.898Z,1.60
2017-12-31T09:23:27.154Z,1.20
2017-12-31T09:25:53.423Z,1.77
2017-12-31T09:28:19.716Z,1.00
2017-12-31T09:30:46.020Z,1.80
2017-12-31T09:33:12.322Z,2.10
2017-12-31T09:35:38.580Z,1.30
2017-12-31T09:38:04.882Z,1.23
2017-12-31T09:40:31.123Z,1.45
2017-12-31T09:42:57.384Z,1.10
2017-12-31T09:45:24.036Z,1.50
2017-12-31T09:47:50.338Z,1.20
2017-12-31T09:50:16.975Z,1.23
2017-12-31T09:52:43.276Z,1.55
2017-12-31T09:55:09.577Z,1.90
2017-12-31T09:57:35.836Z,1.75
2017-12-31T10:00:02.187Z,1.33
2017-12-31T10:02:28.513Z,1.60
2017-12-31T10:04:54.803Z,1.45
2017-12-31T10:07:21.040Z,1.40
2017-12-31T10:09:47.343Z,1.27
2017-12-31T10:12:13.640Z,2.20
2017-12-31T10:14:39.922Z,2.15
2017-12-31T10:17:07.636Z,2.22
2017-12-31T10:19:34.276Z,2.00
2017-12-31T10:22:00.982Z,1.60
2017-12-31T10:24:27.284Z,2.12
2017-12-31T10:26:53.621Z,1.50
2017-12-31T10:29:19.900Z,1.60
2017-12-31T10:31:46.190Z,1.77
2017-12-31T10:34:12.510Z,2.12
2017-12-31T10:36:38.856Z,2.10
2017-12-31T10:39:05.161Z,2.03
2017-12-31T10:41:31.421Z,1.70
2017-12-31T10:43:57.723Z,2.62
2017-12-31T10:46:23.981Z,2.72
2017-12-31T10:48:50.308Z,3.00
2017-12-31T10:51:16.615Z,3.40
2017-12-31T10:53:42.893Z,4.30
2017-12-31T10:56:09.222Z,4.35
2017-12-31T10:58:35.618Z,3.60
2017-12-31T11:01:01.963Z,2.70
2017-12-31T11:03:28.231Z,3.03
2017-12-31T11:05:54.907Z,4.43
2017-12-31T11:08:21.200Z,4.15
2017-12-31T11:10:47.834Z,2.37
2017-12-31T11:13:14.471Z,2.40
2017-12-31T11:15:41.169Z,2.03
2017-12-31T11:18:07.474Z,2.50
2017-12-31T11:20:33.779Z,1.75
2017-12-31T11:23:00.081Z,1.70
2017-12-31T11:25:26.403Z,1.60
2017-12-31T11:27:52.795Z,1.75
2017-12-31T11:30:19.068Z,1.95
2017-12-31T11:32:45.324Z,1.60
2017-12-31T11:35:12.502Z,1.30
2017-12-31T11:37:38.760Z,1.70
2017-12-31T11:40:05.033Z,1.90
2017-12-31T11:42:31.332Z,1.87
2017-12-31T11:44:57.711Z,1.50
2017-12-31T11:47:23.970Z,1.65
2017-12-31T11:49:50.246Z,1.27
2017-12-31T11:52:16.626Z,1.30
2017-12-31T11:54:42.945Z,1.12
2017-12-31T11:57:09.278Z,1.95
2017-12-31T11:59:35.539Z,1.50
2017-12-31T12:02:01.877Z,1.35
2017-12-31T12:04:28.171Z,1.60
2017-12-31T12:06:54.471Z,1.30
2017-12-31T12:09:22.001Z,1.20
2017-12-31T12:11:48.678Z,1.90
2017-12-31T12:14:15.010Z,1.30
2017-12-31T12:16:41.312Z,1.60
2017-12-31T12:19:07.608Z,1.30
2017-12-31T12:21:33.941Z,1.42
2017-12-31T12:24:00.235Z,1.15
2017-12-31T12:26:26.548Z,1.30
2017-12-31T12:28:53.193Z,1.00
2017-12-31T12:31:19.535Z,1.23
2017-12-31T12:33:45.832Z,1.60
2017-12-31T12:36:12.488Z,1.47
2017-12-31T12:38:38.812Z,1.60
2017-12-31T12:41:05.132Z,1.23
2017-12-31T12:43:31.810Z,1.20
2017-12-31T12:45:58.070Z,1.00
2017-12-31T12:48:24.357Z,1.23
2017-12-31T12:50:50.662Z,1.20
2017-12-31T12:53:17.310Z,1.43
2017-12-31T12:55:43.658Z,1.03
2017-12-31T12:58:09.906Z,1.25
2017-12-31T13:00:36.207Z,1.55
2017-12-31T13:03:02.518Z,1.33
2017-12-31T13:05:28.852Z,1.20
2017-12-31T13:07:55.464Z,1.53
2017-12-31T13:10:21.695Z,1.30
2017-12-31T13:12:48.792Z,1.45
2017-12-31T13:15:15.071Z,0.90
2017-12-31T13:17:41.348Z,1.10
2017-12-31T13:20:07.586Z,1.33
2017-12-31T13:22:33.867Z,1.13
2017-12-31T13:25:00.145Z,1.27
2017-12-31T13:27:26.419Z,1.40
2017-12-31T13:29:52.710Z,1.30
2017-12-31T13:32:19.839Z,0.97
2017-12-31T13:34:46.070Z,1.10
2017-12-31T13:37:12.390Z,1.20
2017-12-31T13:39:38.755Z,1.80
2017-12-31T13:42:05.097Z,1.43
2017-12-31T13:44:31.328Z,1.30
2017-12-31T13:46:57.643Z,1.00
2017-12-31T13:49:23.897Z,1.50
2017-12-31T13:51:50.159Z,1.30
2017-12-31T13:54:18.028Z,1.40
2017-12-31T13:56:44.281Z,2.07
2017-12-31T13:59:10.550Z,1.57
2017-12-31T14:01:37.510Z,1.40
2017-12-31T14:04:04.804Z,1.30
2017-12-31T14:06:31.063Z,2.07
2017-12-31T14:08:57.300Z,1.00
2017-12-31T14:11:23.839Z,0.90
2017-12-31T14:13:50.048Z,1.20
2017-12-31T14:16:16.349Z,1.60
2017-12-31T14:18:42.649Z,1.00
2017-12-31T14:21:09.294Z,1.60
2017-12-31T14:23:35.904Z,1.27
2017-12-31T14:26:02.161Z,1.60
2017-12-31T14:28:28.809Z,1.40
2017-12-31T14:30:55.077Z,1.30
2017-12-31T14:33:21.402Z,1.20
2017-12-31T14:35:47.758Z,1.03
2017-12-31T14:38:14.056Z,1.40
2017-12-31T14:40:40.375Z,1.90
2017-12-31T14:43:06.632Z,1.80
2017-12-31T14:45:33.068Z,1.65
2017-12-31T14:47:59.319Z,1.25
2017-12-31T14:50:26.052Z,1.27
2017-12-31T14:52:52.313Z,1.52
2017-12-31T14:55:18.567Z,1.80
2017-12-31T14:57:44.857Z,1.70
2017-12-31T15:00:11.219Z,2.03
2017-12-31T15:02:37.672Z,3.10
2017-12-31T15:05:03.976Z,2.65
2017-12-31T15:07:30.256Z,2.65
2017-12-31T15:09:56.512Z,2.35
2017-12-31T15:12:23.182Z,1.98
2017-12-31T15:14:49.468Z,2.17
2017-12-31T15:17:15.741Z,1.67
2017-12-31T15:19:42.024Z,2.70
2017-12-31T15:22:08.271Z,1.50
2017-12-31T15:24:34.903Z,1.75
2017-12-31T15:27:01.550Z,1.40
2017-12-31T15:29:27.832Z,1.52
2017-12-31T15:31:54.107Z,1.70
2017-12-31T15:34:20.366Z,1.80
2017-12-31T15:36:46.630Z,2.65
2017-12-31T15:39:12.883Z,3.95
2017-12-31T15:41:39.565Z,3.40
2017-12-31T15:44:05.818Z,4.82
2017-12-31T15:46:32.072Z,3.15
2017-12-31T15:48:58.346Z,3.42
2017-12-31T15:51:24.610Z,3.65
2017-12-31T15:53:51.491Z,3.85
2017-12-31T15:56:18.167Z,4.28
2017-12-31T15:58:44.459Z,4.85
2017-12-31T16:01:10.751Z,6.50
2017-12-31T16:03:36.993Z,6.10
2017-12-31T16:06:03.296Z,6.10
2017-12-31T16:08:30.453Z,6.28
2017-12-31T16:10:56.747Z,6.12
2017-12-31T16:13:23.056Z,5.00
2017-12-31T16:15:49.953Z,5.05
2017-12-31T16:18:21.097Z,4.00
2017-12-31T16:20:47.385Z,4.15
2017-12-31T16:23:13.668Z,3.72
2017-12-31T16:25:39.941Z,9.25
2017-12-31T16:28:06.222Z,6.53
2017-12-31T16:30:32.506Z,3.80
2017-12-31T16:32:58.836Z,20.15
2017-12-31T16:35:25.115Z,43.15
2017-12-31T16:37:51.340Z,29.63
2017-12-31T16:40:17.632Z,14.93
2017-12-31T16:42:43.883Z,15.10
2017-12-31T16:45:11.139Z,12.77
2017-12-31T16:47:37.415Z,10.98
2017-12-31T16:50:03.745Z,9.00
2017-12-31T16:52:30.006Z,10.18
2017-12-31T16:54:56.253Z,8.85
2017-12-31T16:57:22.598Z,9.95
2017-12-31T16:59:48.876Z,11.52
2017-12-31T17:02:15.151Z,11.95
2017-12-31T17:04:41.444Z,12.60
2017-12-31T17:07:07.709Z,10.93
2017-12-31T17:09:34.023Z,8.48
2017-12-31T17:12:00.294Z,10.10
2017-12-31T17:14:26.944Z,10.68
2017-12-31T17:16:53.541Z,10.23
2017-12-31T17:19:19.886Z,12.60
2017-12-31T17:21:46.135Z,13.62
2017-12-31T17:24:12.435Z,10.07
2017-12-31T17:26:38.838Z,8.70
2017-12-31T17:29:05.091Z,9.00
2017-12-31T17:31:31.391Z,9.15
2017-12-31T17:33:57.656Z,9.60
2017-12-31T17:36:23.913Z,9.32
2017-12-31T17:38:50.157Z,10.52
2017-12-31T17:41:16.427Z,13.00
2017-12-31T17:43:42.696Z,15.70
2017-12-31T17:46:09.350Z,9.82
2017-12-31T17:48:35.624Z,5.50
2017-12-31T17:51:01.926Z,4.43
2017-12-31T17:53:28.210Z,6.00
2017-12-31T17:55:55.041Z,7.72
2017-12-31T17:58:21.331Z,11.73
2017-12-31T18:00:47.594Z,11.05
2017-12-31T18:03:14.559Z,14.05
2017-12-31T18:05:40.865Z,6.90
2017-12-31T18:08:07.124Z,6.15
2017-12-31T18:10:33.767Z,3.50
2017-12-31T18:13:00.418Z,5.03
2017-12-31T18:15:26.654Z,6.75
2017-12-31T18:17:52.949Z,7.03
2017-12-31T18:20:19.280Z,7.60
2017-12-31T18:22:45.927Z,10.15
2017-12-31T18:25:12.586Z,8.63
2017-12-31T18:27:38.825Z,12.07
2017-12-31T18:30:05.068Z,17.12
2017-12-31T18:32:31.386Z,49.03
2017-12-31T18:34:57.672Z,43.15
2017-12-31T18:37:23.946Z,37.78
2017-12-31T18:39:50.245Z,27.73
2017-12-31T18:42:16.509Z,27.30
2017-12-31T18:44:42.742Z,23.38
2017-12-31T18:47:08.974Z,16.62
2017-12-31T18:49:35.244Z,13.15
2017-12-31T18:52:01.514Z,11.80
2017-12-31T18:54:27.764Z,12.13
2017-12-31T18:56:53.980Z,12.98
2017-12-31T18:59:20.256Z,13.90
2017-12-31T19:01:46.500Z,14.43
2017-12-31T19:04:12.706Z,14.25
2017-12-31T19:06:38.953Z,14.32
2017-12-31T19:09:05.235Z,12.50
2017-12-31T19:11:31.502Z,12.73
2017-12-31T19:13:58.167Z,11.82
2017-12-31T19:16:24.457Z,10.90
2017-12-31T19:18:50.736Z,9.18
2017-12-31T19:21:17.045Z,9.35
2017-12-31T19:23:43.658Z,11.35
2017-12-31T19:26:09.866Z,10.43
2017-12-31T19:28:36.099Z,11.45
2017-12-31T19:31:02.351Z,10.43
2017-12-31T19:33:28.924Z,10.60
2017-12-31T19:35:55.161Z,11.32
2017-12-31T19:38:21.410Z,10.63
2017-12-31T19:40:47.675Z,12.68
2017-12-31T19:43:14.291Z,12.95
2017-12-31T19:45:41.501Z,11.68
2017-12-31T19:48:08.096Z,12.50
2017-12-31T19:50:34.343Z,14.27
2017-12-31T19:53:01.581Z,14.73
2017-12-31T19:55:27.834Z,12.93
2017-12-31T19:57:54.077Z,14.00
2017-12-31T20:00:20.386Z,18.00
2017-12-31T20:02:46.607Z,17.33
2017-12-31T20:05:13.227Z,21.87
2017-12-31T20:07:39.885Z,36.25
2017-12-31T20:10:06.204Z,24.40
2017-12-31T20:12:32.486Z,19.17
2017-12-31T20:14:58.723Z,17.42
2017-12-31T20:17:25.001Z,16.40
2017-12-31T20:19:51.248Z,16.12
2017-12-31T20:22:17.501Z,14.05
2017-12-31T20:24:43.757Z,15.77
2017-12-31T20:27:10.016Z,14.02
2017-12-31T20:29:36.282Z,14.65
2017-12-31T20:32:02.516Z,15.32
2017-12-31T20:34:28.803Z,17.60
2017-12-31T20:36:55.123Z,16.75
2017-12-31T20:39:22.109Z,16.40
2017-12-31T20:41:49.348Z,15.80
2017-12-31T20:44:15.623Z,16.02
2017-12-31T20:46:41.884Z,16.30
2017-12-31T20:49:08.113Z,21.80
2017-12-31T20:51:34.326Z,20.98
2017-12-31T20:54:00.601Z,26.85
2017-12-31T20:56:26.870Z,30.25
2017-12-31T20:58:53.113Z,29.45
2017-12-31T21:01:20.119Z,25.95
2017-12-31T21:03:46.434Z,27.87
2017-12-31T21:06:12.717Z,21.70
2017-12-31T21:08:39.365Z,20.70
2017-12-31T21:11:06.021Z,21.00
2017-12-31T21:13:32.252Z,26.08
2017-12-31T21:15:58.508Z,25.33
2017-12-31T21:18:24.752Z,18.55
2017-12-31T21:20:51.009Z,19.17
2017-12-31T21:23:18.215Z,19.17
2017-12-31T21:25:44.436Z,32.83
2017-12-31T21:28:10.748Z,22.58
2017-12-31T21:30:36.976Z,20.12
2017-12-31T21:33:03.234Z,20.83
2017-12-31T21:35:29.469Z,19.73
2017-12-31T21:37:55.771Z,20.17
2017-12-31T21:40:22.021Z,19.23
2017-12-31T21:42:48.262Z,19.50
2017-12-31T21:45:14.516Z,21.95
2017-12-31T21:47:41.113Z,21.58
2017-12-31T21:50:07.972Z,23.77
2017-12-31T21:52:34.215Z,25.42
2017-12-31T21:55:00.466Z,25.70
2017-12-31T21:57:27.093Z,25.85
2017-12-31T21:59:53.711Z,25.40
2017-12-31T22:02:20.015Z,25.73
2017-12-31T22:04:46.272Z,26.35
2017-12-31T22:07:12.553Z,24.83
2017-12-31T22:09:38.844Z,26.92
2017-12-31T22:12:05.441Z,27.17
2017-12-31T22:14:31.659Z,27.52
2017-12-31T22:16:57.907Z,26.77
2017-12-31T22:19:24.481Z,26.80
2017-12-31T22:21:50.789Z,26.67
2017-12-31T22:24:17.009Z,23.45
2017-12-31T22:26:43.236Z,26.33
2017-12-31T22:29:09.470Z,26.37
2017-12-31T22:31:35.706Z,25.12
2017-12-31T22:34:01.943Z,25.33
2017-12-31T22:36:28.541Z,25.12
2017-12-31T22:38:54.764Z,26.30
2017-12-31T22:41:21.004Z,26.02
2017-12-31T22:43:47.258Z,26.83
2017-12-31T22:46:13.876Z,28.33
2017-12-31T22:48:40.096Z,25.80
2017-12-31T22:51:06.374Z,26.05
2017-12-31T22:53:32.949Z,23.52
2017-12-31T22:55:59.213Z,23.40
2017-12-31T22:58:25.459Z,24.33
2017-12-31T23:00:52.092Z,28.70
2017-12-31T23:03:18.663Z,178.52
2017-12-31T23:05:44.932Z,317.33
2017-12-31T23:08:11.290Z,591.90
2017-12-31T23:10:38.711Z,562.05
2017-12-31T23:13:04.962Z,399.95
2017-12-31T23:15:31.215Z,329.98
2017-12-31T23:17:57.518Z,226.35
2017-12-31T23:20:23.734Z,273.35
2017-12-31T23:22:49.956Z,197.45
2017-12-31T23:25:17.067Z,150.15
2017-12-31T23:27:43.284Z,143.02
2017-12-31T23:30:09.539Z,194.87
2017-12-31T23:32:35.829Z,387.05
2017-12-31T23:35:02.071Z,187.62
2017-12-31T23:37:28.307Z,181.98
2017-12-31T23:39:54.650Z,134.50
2017-12-31T23:42:20.917Z,98.45
2017-12-31T23:44:47.742Z,83.93
2017-12-31T23:47:14.052Z,78.93
2017-12-31T23:49:40.271Z,79.00
2017-12-31T23:52:06.566Z,81.07
2017-12-31T23:54:33.023Z,86.82
2017-12-31T23:56:59.259Z,87.25
2017-12-31T23:59:25.526Z,89.30
